createdAt,value
2019-01-09T00:00:33.977Z,1.50
2019-01-09T00:03:05.256Z,1.53
2019-01-09T00:05:36.223Z,1.80
2019-01-09T00:08:07.599Z,1.40
2019-01-09T00:10:39.743Z,1.93
2019-01-09T00:13:15.176Z,2.13
2019-01-09T00:15:46.632Z,2.60
2019-01-09T00:18:17.306Z,2.70
2019-01-09T00:20:50.381Z,2.00
2019-01-09T00:23:22.741Z,1.80
2019-01-09T00:25:54.585Z,1.83
2019-01-09T00:28:26.562Z,1.60
2019-01-09T00:31:01.957Z,1.70
2019-01-09T00:33:34.843Z,1.90
2019-01-09T00:36:07.755Z,1.63
2019-01-09T00:38:40.552Z,1.40
2019-01-09T00:41:11.985Z,0.97
2019-01-09T00:43:42.824Z,0.70
2019-01-09T00:46:13.687Z,0.57
2019-01-09T00:48:42.982Z,1.23
2019-01-09T00:51:14.758Z,0.90
2019-01-09T00:53:45.733Z,0.70
2019-01-09T00:56:17.562Z,0.63
2019-01-09T00:58:48.809Z,0.60
2019-01-09T01:01:19.939Z,0.83
2019-01-09T01:04:34.286Z,0.80
2019-01-09T01:07:40.852Z,0.57
2019-01-09T01:10:35.976Z,0.50
2019-01-09T01:13:49.249Z,0.80
2019-01-09T01:17:12.509Z,0.37
2019-01-09T01:20:16.500Z,0.47
2019-01-09T01:23:31.507Z,0.50
2019-01-09T01:26:55.716Z,0.40
2019-01-09T01:30:00.471Z,0.30
2019-01-09T01:32:47.572Z,0.30
2019-01-09T01:35:59.669Z,0.40
2019-01-09T01:38:59.205Z,0.30
2019-01-09T01:42:20.126Z,0.43
2019-01-09T01:45:03.388Z,0.50
2019-01-09T01:47:54.014Z,0.20
2019-01-09T01:50:56.398Z,0.30
2019-01-09T01:53:57.103Z,0.40
2019-01-09T01:57:01.683Z,0.23
2019-01-09T02:00:12.949Z,0.23
2019-01-09T02:03:09.545Z,0.20
2019-01-09T02:05:52.148Z,0.30
2019-01-09T02:08:37.562Z,0.20
2019-01-09T02:12:02.470Z,0.10
2019-01-09T02:15:07.202Z,0.30
2019-01-09T02:17:52.971Z,0.20
2019-01-09T02:20:51.850Z,0.43
2019-01-09T02:23:49.321Z,0.10
2019-01-09T02:27:14.492Z,0.30
2019-01-09T02:30:06.638Z,0.27
2019-01-09T02:32:38.023Z,0.30
2019-01-09T02:35:09.755Z,0.50
2019-01-09T02:37:39.228Z,0.57
2019-01-09T02:40:08.467Z,0.40
2019-01-09T02:42:37.703Z,0.40
2019-01-09T02:45:07.394Z,0.30
2019-01-09T02:47:36.641Z,0.30
2019-01-09T02:50:06.335Z,0.50
2019-01-09T02:52:36.867Z,0.70
2019-01-09T02:55:07.455Z,0.60
2019-01-09T02:57:37.092Z,0.80
2019-01-09T03:00:10.665Z,0.80
2019-01-09T03:02:41.788Z,1.00
2019-01-09T03:05:11.879Z,1.13
2019-01-09T03:07:43.731Z,1.13
2019-01-09T03:10:13.337Z,0.87
2019-01-09T03:12:42.907Z,0.90
2019-01-09T03:15:12.167Z,0.93
2019-01-09T03:17:42.652Z,1.13
2019-01-09T03:20:15.287Z,0.90
2019-01-09T03:22:54.885Z,0.63
2019-01-09T03:25:24.113Z,0.60
2019-01-09T03:27:56.457Z,0.60
2019-01-09T03:30:26.039Z,0.67
2019-01-09T03:32:55.641Z,0.60
2019-01-09T03:35:24.855Z,0.80
2019-01-09T03:37:54.411Z,0.80
2019-01-09T03:40:25.461Z,1.00
2019-01-09T03:42:56.533Z,0.60
2019-01-09T03:45:28.784Z,0.63
2019-01-09T03:47:58.710Z,1.03
2019-01-09T03:50:32.474Z,0.83
2019-01-09T03:53:02.393Z,0.70
2019-01-09T03:55:42.168Z,0.77
2019-01-09T03:58:13.660Z,0.90
2019-01-09T04:00:43.989Z,1.10
2019-01-09T04:03:13.498Z,0.70
2019-01-09T04:05:44.706Z,1.03
2019-01-09T04:08:18.155Z,1.47
2019-01-09T04:10:48.924Z,1.10
2019-01-09T04:13:19.806Z,0.80
2019-01-09T04:16:09.193Z,0.87
2019-01-09T04:18:40.939Z,1.10
2019-01-09T04:21:11.072Z,1.20
2019-01-09T04:23:40.924Z,0.80
2019-01-09T04:26:10.826Z,0.90
2019-01-09T04:28:40.691Z,1.00
2019-01-09T04:31:10.464Z,1.23
2019-01-09T04:33:40.091Z,1.13
2019-01-09T04:36:11.451Z,1.10
2019-01-09T04:38:44.394Z,1.13
2019-01-09T04:41:15.472Z,1.27
2019-01-09T04:43:45.557Z,1.40
2019-01-09T04:46:15.890Z,1.10
2019-01-09T04:48:49.772Z,1.40
2019-01-09T04:51:21.984Z,1.17
2019-01-09T04:53:54.687Z,1.27
2019-01-09T04:56:26.360Z,1.00
2019-01-09T04:58:58.931Z,1.20
2019-01-09T05:01:29.955Z,1.40
2019-01-09T05:04:00.909Z,1.17
2019-01-09T05:06:35.278Z,1.10
2019-01-09T05:09:08.506Z,1.43
2019-01-09T05:11:38.440Z,1.13
2019-01-09T05:14:08.306Z,1.20
2019-01-09T05:16:38.140Z,1.40
2019-01-09T05:19:07.790Z,1.10
2019-01-09T05:21:38.661Z,1.30
2019-01-09T05:24:08.385Z,1.20
2019-01-09T05:26:37.631Z,1.10
2019-01-09T05:29:09.753Z,1.37
2019-01-09T05:31:39.806Z,1.10
2019-01-09T05:34:09.702Z,1.50
2019-01-09T05:36:41.724Z,1.60
2019-01-09T05:39:11.347Z,1.70
2019-01-09T05:41:41.038Z,1.60
2019-01-09T05:44:10.542Z,1.50
2019-01-09T05:46:42.139Z,1.80
2019-01-09T05:49:11.715Z,2.20
2019-01-09T05:51:41.262Z,1.30
2019-01-09T05:54:12.704Z,1.50
2019-01-09T05:56:42.330Z,1.50
2019-01-09T05:59:15.970Z,1.17
2019-01-09T06:01:46.411Z,1.37
2019-01-09T06:04:15.719Z,1.27
2019-01-09T06:06:45.559Z,1.00
2019-01-09T06:09:15.075Z,1.20
2019-01-09T06:11:44.743Z,1.20
2019-01-09T06:14:15.198Z,0.93
2019-01-09T06:16:44.460Z,1.20
2019-01-09T06:19:15.073Z,1.40
2019-01-09T06:21:44.930Z,1.10
2019-01-09T06:24:16.633Z,1.20
2019-01-09T06:26:46.716Z,1.10
2019-01-09T06:29:16.647Z,1.03
2019-01-09T06:31:46.064Z,0.93
2019-01-09T06:34:18.255Z,1.20
2019-01-09T06:36:49.031Z,1.13
2019-01-09T06:39:19.012Z,1.60
2019-01-09T06:41:55.528Z,1.00
2019-01-09T06:44:28.011Z,0.90
2019-01-09T06:46:58.519Z,1.47
2019-01-09T06:49:31.576Z,0.80
2019-01-09T06:52:03.242Z,0.83
2019-01-09T06:54:36.604Z,0.90
2019-01-09T06:57:06.930Z,1.10
2019-01-09T06:59:37.720Z,1.03
2019-01-09T07:02:08.853Z,1.10
2019-01-09T07:04:40.936Z,1.03
2019-01-09T07:07:10.864Z,1.00
2019-01-09T07:09:40.455Z,1.30
2019-01-09T07:12:09.826Z,0.90
2019-01-09T07:14:40.348Z,1.10
2019-01-09T07:17:10.518Z,1.37
2019-01-09T07:19:40.079Z,1.23
2019-01-09T07:22:10.836Z,1.30
2019-01-09T07:24:41.654Z,1.20
2019-01-09T07:27:12.439Z,1.07
2019-01-09T07:29:41.780Z,1.47
2019-01-09T07:32:11.644Z,1.27
2019-01-09T07:34:42.206Z,1.00
2019-01-09T07:37:12.189Z,1.00
2019-01-09T07:39:41.523Z,1.30
2019-01-09T07:42:10.773Z,1.23
2019-01-09T07:44:41.534Z,1.00
2019-01-09T07:47:11.673Z,1.17
2019-01-09T07:49:41.644Z,1.10
2019-01-09T07:52:11.563Z,0.90
2019-01-09T07:54:42.604Z,1.30
2019-01-09T07:57:14.362Z,1.13
2019-01-09T07:59:43.909Z,1.13
2019-01-09T08:02:16.715Z,1.33
2019-01-09T08:04:48.076Z,1.40
2019-01-09T08:07:18.277Z,1.27
2019-01-09T08:09:48.595Z,1.60
2019-01-09T08:12:25.971Z,1.37
2019-01-09T08:14:56.098Z,1.40
2019-01-09T08:17:26.001Z,1.30
2019-01-09T08:19:59.201Z,1.37
2019-01-09T08:22:29.148Z,1.43
2019-01-09T08:25:00.807Z,1.33
2019-01-09T08:27:30.236Z,1.47
2019-01-09T08:29:59.547Z,1.17
2019-01-09T08:32:28.995Z,1.60
2019-01-09T08:35:00.040Z,1.73
2019-01-09T08:37:31.389Z,1.43
2019-01-09T08:40:02.241Z,1.50
2019-01-09T08:42:36.441Z,1.80
2019-01-09T08:45:14.760Z,1.70
2019-01-09T08:47:45.506Z,2.03
2019-01-09T08:50:15.576Z,1.67
2019-01-09T08:52:45.730Z,1.90
2019-01-09T08:55:16.569Z,1.30
2019-01-09T08:57:46.876Z,1.57
2019-01-09T09:00:20.767Z,1.40
2019-01-09T09:02:49.997Z,1.60
2019-01-09T09:05:19.765Z,1.20
2019-01-09T09:07:58.176Z,1.13
2019-01-09T09:10:29.532Z,1.13
2019-01-09T09:12:59.325Z,1.43
2019-01-09T09:15:28.840Z,1.30
2019-01-09T09:17:59.520Z,1.07
2019-01-09T09:20:29.020Z,1.07
2019-01-09T09:22:58.338Z,1.50
2019-01-09T09:25:39.619Z,1.30
2019-01-09T09:28:11.361Z,1.00
2019-01-09T09:30:40.718Z,1.00
2019-01-09T09:33:11.422Z,1.40
2019-01-09T09:35:41.269Z,1.23
2019-01-09T09:38:23.650Z,1.23
2019-01-09T09:41:20.310Z,1.13
2019-01-09T09:43:57.884Z,1.23
2019-01-09T09:46:31.285Z,1.27
2019-01-09T09:49:11.903Z,1.37
2019-01-09T09:52:08.248Z,1.10
2019-01-09T09:55:00.976Z,1.37
2019-01-09T09:57:33.732Z,0.80
2019-01-09T10:00:13.304Z,1.23
2019-01-09T10:02:50.721Z,0.80
2019-01-09T10:05:24.971Z,1.10
2019-01-09T10:08:09.772Z,0.83
2019-01-09T10:10:45.519Z,1.50
2019-01-09T10:13:14.842Z,1.07
2019-01-09T10:15:54.319Z,1.30
2019-01-09T10:21:51.796Z,1.00
2019-01-09T10:24:50.495Z,1.10
2019-01-09T10:27:30.084Z,0.97
2019-01-09T10:30:03.056Z,0.90
2019-01-09T10:32:53.615Z,1.07
2019-01-09T10:35:42.379Z,1.17
2019-01-09T10:38:14.198Z,0.93
2019-01-09T10:40:44.878Z,1.00
2019-01-09T10:43:14.142Z,0.97
2019-01-09T10:45:46.732Z,1.00
2019-01-09T10:48:17.735Z,0.90
2019-01-09T10:50:50.129Z,1.30
2019-01-09T10:53:25.526Z,0.80
2019-01-09T10:56:01.215Z,1.00
2019-01-09T11:01:30.745Z,1.40
2019-01-09T11:04:02.650Z,1.30
2019-01-09T11:06:33.115Z,1.13
2019-01-09T11:09:02.382Z,1.03
2019-01-09T11:11:31.624Z,1.33
2019-01-09T11:14:01.248Z,1.00
2019-01-09T11:16:30.467Z,0.97
2019-01-09T11:18:59.716Z,0.80
2019-01-09T11:21:31.703Z,1.03
2019-01-09T11:24:01.273Z,1.20
2019-01-09T11:26:36.315Z,1.57
2019-01-09T11:29:13.781Z,1.40
2019-01-09T11:31:52.406Z,0.93
2019-01-09T11:34:43.359Z,1.10
2019-01-09T11:37:16.288Z,1.20
2019-01-09T11:39:52.775Z,1.17
2019-01-09T11:42:26.495Z,0.90
2019-01-09T11:45:00.482Z,0.90
2019-01-09T11:47:37.278Z,1.20
2019-01-09T11:50:16.011Z,1.60
2019-01-09T11:52:52.805Z,1.47
2019-01-09T11:55:28.788Z,1.00
2019-01-09T11:58:09.165Z,1.57
2019-01-09T12:01:32.933Z,1.23
2019-01-09T12:04:04.800Z,1.20
2019-01-09T12:06:36.229Z,1.40
2019-01-09T12:09:11.931Z,1.20
2019-01-09T12:11:50.230Z,1.63
2019-01-09T12:14:22.251Z,1.00
2019-01-09T12:16:53.814Z,1.07
2019-01-09T12:19:30.590Z,0.90
2019-01-09T12:22:02.827Z,1.33
2019-01-09T12:24:34.106Z,1.23
2019-01-09T12:27:05.433Z,0.90
2019-01-09T12:29:37.566Z,0.87
2019-01-09T12:32:08.680Z,0.70
2019-01-09T12:34:43.275Z,0.80
2019-01-09T12:37:15.330Z,1.10
2019-01-09T12:39:44.625Z,1.30
2019-01-09T12:42:16.048Z,1.20
2019-01-09T12:44:47.561Z,1.30
2019-01-09T12:47:18.947Z,1.13
2019-01-09T12:49:49.529Z,1.20
2019-01-09T12:52:21.289Z,1.67
2019-01-09T12:54:50.611Z,1.00
2019-01-09T12:57:21.837Z,1.53
2019-01-09T12:59:57.076Z,1.03
2019-01-09T13:02:28.375Z,1.00
2019-01-09T13:04:57.736Z,2.13
2019-01-09T13:10:38.872Z,0.80
2019-01-09T13:13:13.878Z,1.00
2019-01-09T13:15:43.951Z,0.80
2019-01-09T13:18:28.408Z,1.17
2019-01-09T13:20:58.782Z,1.40
2019-01-09T13:23:28.039Z,1.20
2019-01-09T13:25:58.546Z,1.20
2019-01-09T13:28:32.182Z,1.10
2019-01-09T13:31:10.436Z,1.30
2019-01-09T13:33:41.891Z,1.20
2019-01-09T13:36:11.758Z,0.93
2019-01-09T13:38:50.997Z,0.87
2019-01-09T13:41:22.744Z,1.10
2019-01-09T13:43:53.831Z,0.87
2019-01-09T13:46:24.425Z,0.97
2019-01-09T13:48:57.018Z,0.80
2019-01-09T13:54:44.982Z,0.80
2019-01-09T13:57:24.113Z,0.73
2019-01-09T13:59:54.757Z,0.90
2019-01-09T14:02:29.521Z,0.80
2019-01-09T14:04:58.785Z,0.90
2019-01-09T14:07:32.076Z,0.70
2019-01-09T14:10:05.936Z,0.93
2019-01-09T14:12:36.038Z,0.80
2019-01-09T14:15:08.215Z,0.83
2019-01-09T14:17:37.845Z,0.90
2019-01-09T14:20:12.789Z,0.67
2019-01-09T14:22:46.659Z,0.80
2019-01-09T14:25:19.834Z,0.97
2019-01-09T14:27:51.539Z,0.60
2019-01-09T14:30:28.068Z,0.80
2019-01-09T14:33:03.942Z,0.63
2019-01-09T14:35:40.037Z,0.97
2019-01-09T14:38:10.416Z,0.70
2019-01-09T14:40:42.120Z,0.50
2019-01-09T14:43:16.512Z,0.73
2019-01-09T14:45:46.212Z,0.90
2019-01-09T14:48:17.596Z,1.20
2019-01-09T14:50:50.139Z,0.90
2019-01-09T14:53:21.376Z,0.70
2019-01-09T14:55:52.243Z,0.97
2019-01-09T14:58:22.805Z,1.00
2019-01-09T15:00:54.772Z,0.70
2019-01-09T15:03:25.098Z,0.90
2019-01-09T15:05:56.639Z,1.00
2019-01-09T15:08:30.255Z,0.90
2019-01-09T15:11:11.319Z,0.90
2019-01-09T15:13:43.631Z,0.70
2019-01-09T15:16:13.842Z,0.83
2019-01-09T15:18:44.434Z,0.90
2019-01-09T15:21:14.576Z,1.27
2019-01-09T15:23:43.910Z,1.10
2019-01-09T15:26:19.126Z,0.90
2019-01-09T15:28:50.230Z,0.97
2019-01-09T15:31:23.303Z,0.80
2019-01-09T15:33:53.339Z,1.17
2019-01-09T15:36:23.847Z,0.80
2019-01-09T15:38:55.769Z,0.80
2019-01-09T15:41:28.403Z,0.80
2019-01-09T15:44:06.471Z,0.90
2019-01-09T15:46:41.580Z,1.20
2019-01-09T15:49:11.291Z,0.80
2019-01-09T15:51:40.879Z,0.90
2019-01-09T15:54:16.340Z,1.00
2019-01-09T15:56:52.394Z,0.80
2019-01-09T15:59:22.158Z,0.90
2019-01-09T16:01:51.381Z,0.80
2019-01-09T16:04:22.197Z,0.70
2019-01-09T16:06:51.431Z,0.70
2019-01-09T16:09:20.695Z,1.07
2019-01-09T16:11:50.192Z,1.40
2019-01-09T16:14:19.720Z,0.90
2019-01-09T16:16:48.946Z,0.90
2019-01-09T16:19:18.482Z,0.67
2019-01-09T16:21:47.796Z,1.10
2019-01-09T16:24:17.415Z,0.80
2019-01-09T16:26:46.925Z,0.90
2019-01-09T16:29:16.531Z,0.80
2019-01-09T16:31:47.432Z,0.80
2019-01-09T16:34:17.933Z,1.10
2019-01-09T16:36:53.689Z,1.10
2019-01-09T16:39:30.977Z,1.00
2019-01-09T16:42:01.670Z,1.07
2019-01-09T16:44:37.838Z,1.13
2019-01-09T16:47:11.843Z,0.97
2019-01-09T16:50:00.717Z,1.20
2019-01-09T16:52:30.630Z,1.10
2019-01-09T16:55:03.474Z,0.73
2019-01-09T16:57:34.844Z,1.23
2019-01-09T17:00:14.475Z,1.40
2019-01-09T17:02:48.424Z,1.40
2019-01-09T17:05:24.396Z,1.40
2019-01-09T17:08:25.707Z,1.27
2019-01-09T17:10:56.593Z,1.20
2019-01-09T17:13:32.107Z,1.10
2019-01-09T17:16:09.112Z,1.23
2019-01-09T17:18:40.368Z,1.47
2019-01-09T17:21:12.461Z,1.30
2019-01-09T17:23:55.029Z,1.40
2019-01-09T17:26:30.055Z,1.30
2019-01-09T17:28:59.300Z,1.17
2019-01-09T17:31:28.565Z,1.53
2019-01-09T17:33:59.681Z,1.47
2019-01-09T17:36:29.150Z,1.60
2019-01-09T17:39:01.887Z,1.83
2019-01-09T17:41:32.123Z,1.80
2019-01-09T17:44:03.116Z,2.27
2019-01-09T17:46:35.504Z,1.80
2019-01-09T17:49:06.888Z,1.90
2019-01-09T17:51:36.524Z,1.73
2019-01-09T17:54:06.239Z,1.83
2019-01-09T17:56:36.064Z,1.80
2019-01-09T17:59:07.083Z,1.50
2019-01-09T18:01:36.413Z,1.73
2019-01-09T18:04:06.504Z,2.07
2019-01-09T18:06:35.910Z,1.60
2019-01-09T18:09:11.183Z,1.80
2019-01-09T18:11:42.415Z,2.00
2019-01-09T18:14:35.095Z,1.90
2019-01-09T18:17:04.700Z,2.07
2019-01-09T18:19:39.202Z,2.30
2019-01-09T18:22:09.733Z,1.83
2019-01-09T18:24:38.995Z,1.80
2019-01-09T18:27:11.690Z,1.90
2019-01-09T18:29:41.748Z,1.90
2019-01-09T18:32:41.376Z,2.00
2019-01-09T18:35:19.366Z,1.80
2019-01-09T18:38:37.531Z,2.47
2019-01-09T18:41:42.855Z,1.80
2019-01-09T18:44:37.111Z,1.83
2019-01-09T18:47:18.557Z,2.33
2019-01-09T18:50:38.863Z,2.20
2019-01-09T18:53:35.526Z,2.13
2019-01-09T18:56:11.921Z,2.00
2019-01-09T18:58:43.022Z,1.87
2019-01-09T19:01:14.177Z,2.27
2019-01-09T19:03:46.024Z,2.20
2019-01-09T19:06:16.237Z,2.10
2019-01-09T19:08:46.016Z,2.27
2019-01-09T19:11:15.793Z,2.10
2019-01-09T19:13:45.712Z,2.00
2019-01-09T19:16:16.398Z,2.20
2019-01-09T19:18:45.940Z,2.00
2019-01-09T19:21:15.956Z,2.20
2019-01-09T19:23:45.864Z,2.27
2019-01-09T19:26:22.573Z,2.67
2019-01-09T19:28:54.226Z,2.43
2019-01-09T19:31:31.388Z,2.50
2019-01-09T19:34:04.388Z,2.40
2019-01-09T19:36:36.897Z,2.50
2019-01-09T19:39:18.117Z,2.53
2019-01-09T19:41:49.889Z,2.70
2019-01-09T19:44:20.027Z,2.67
2019-01-09T19:46:55.263Z,2.80
2019-01-09T19:49:29.178Z,2.60
2019-01-09T19:52:01.747Z,2.70
2019-01-09T19:54:34.676Z,2.67
2019-01-09T19:57:05.386Z,2.40
2019-01-09T19:59:41.067Z,2.40
2019-01-09T20:02:12.928Z,2.30
2019-01-09T20:04:47.898Z,2.53
2019-01-09T20:07:23.861Z,2.50
2019-01-09T20:09:55.708Z,2.13
2019-01-09T20:12:31.818Z,2.50
2019-01-09T20:15:01.150Z,2.60
2019-01-09T20:17:32.443Z,2.13
2019-01-09T20:20:02.357Z,2.33
2019-01-09T20:22:31.641Z,2.37
2019-01-09T20:25:02.168Z,2.23
2019-01-09T20:27:31.365Z,2.50
2019-01-09T20:30:00.667Z,2.23
2019-01-09T20:32:29.862Z,2.53
2019-01-09T20:35:01.927Z,2.20
2019-01-09T20:37:34.760Z,2.00
2019-01-09T20:40:08.100Z,2.33
2019-01-09T20:42:39.507Z,2.43
2019-01-09T20:45:12.038Z,2.30
2019-01-09T20:47:44.521Z,2.30
2019-01-09T20:50:17.163Z,2.50
2019-01-09T20:52:47.942Z,2.27
2019-01-09T20:55:17.264Z,3.13
2019-01-09T20:57:46.541Z,2.93
2019-01-09T21:00:25.504Z,2.57
2019-01-09T21:02:59.421Z,2.53
2019-01-09T21:05:44.426Z,2.93
2019-01-09T21:08:15.521Z,3.43
2019-01-09T21:10:44.920Z,2.90
2019-01-09T21:13:18.467Z,2.90
2019-01-09T21:15:49.302Z,3.03
2019-01-09T21:18:20.684Z,3.53
2019-01-09T21:20:50.268Z,2.77
2019-01-09T21:23:26.626Z,3.27
2019-01-09T21:25:56.731Z,3.10
2019-01-09T21:28:38.604Z,2.77
2019-01-09T21:31:12.351Z,3.30
2019-01-09T21:33:49.888Z,2.90
2019-01-09T21:36:20.818Z,3.17
2019-01-09T21:38:52.534Z,3.47
2019-01-09T21:41:23.341Z,2.97
2019-01-09T21:43:57.463Z,3.10
2019-01-09T21:46:33.454Z,3.23
2019-01-09T21:49:04.524Z,3.13
2019-01-09T21:51:36.283Z,3.17
2019-01-09T21:54:05.642Z,2.93
2019-01-09T21:56:41.525Z,3.20
2019-01-09T21:59:11.886Z,3.40
2019-01-09T22:01:43.626Z,2.80
2019-01-09T22:04:15.146Z,3.37
2019-01-09T22:06:46.678Z,3.20
2019-01-09T22:09:19.424Z,3.07
2019-01-09T22:11:50.851Z,3.50
2019-01-09T22:14:22.102Z,3.57
2019-01-09T22:16:53.399Z,3.40
2019-01-09T22:19:25.193Z,3.40
2019-01-09T22:22:00.161Z,3.63
2019-01-09T22:24:31.757Z,3.27
2019-01-09T22:27:00.995Z,3.80
2019-01-09T22:29:32.829Z,3.63
2019-01-09T22:32:05.170Z,3.10
2019-01-09T22:34:36.254Z,3.77
2019-01-09T22:37:05.846Z,3.77
2019-01-09T22:39:37.811Z,3.70
2019-01-09T22:42:11.999Z,4.77
2019-01-09T22:44:41.140Z,3.50
2019-01-09T22:47:12.349Z,3.53
2019-01-09T22:49:44.027Z,3.57
2019-01-09T22:52:15.166Z,3.70
2019-01-09T22:54:46.535Z,3.57
2019-01-09T22:57:16.769Z,3.77
2019-01-09T22:59:48.618Z,4.00
2019-01-09T23:02:19.547Z,3.57
2019-01-09T23:04:50.205Z,4.00
2019-01-09T23:07:19.863Z,3.27
2019-01-09T23:09:49.436Z,3.63
2019-01-09T23:12:21.427Z,4.03
2019-01-09T23:14:51.117Z,3.80
2019-01-09T23:17:22.397Z,3.60
2019-01-09T23:19:53.726Z,3.47
2019-01-09T23:22:30.407Z,3.40
2019-01-09T23:25:04.654Z,3.80
2019-01-09T23:27:36.114Z,3.77
2019-01-09T23:30:09.496Z,3.50
2019-01-09T23:32:41.186Z,4.23
2019-01-09T23:35:15.097Z,4.57
2019-01-09T23:37:47.103Z,3.87
2019-01-09T23:40:20.763Z,4.57
2019-01-09T23:42:52.105Z,3.90
2019-01-09T23:45:23.985Z,4.27
2019-01-09T23:47:55.536Z,4.67
2019-01-09T23:50:27.308Z,4.00
2019-01-09T23:52:56.869Z,3.90
2019-01-09T23:55:26.417Z,4.43
2019-01-09T23:57:56.870Z,4.00
